sensor_id;sensor_type;location;lat;lon;timestamp;P1;durP1;ratioP1;P2;durP2;ratioP2
76962;SDS011;65902;51.452;7.198;2023-03-01T00:00:20;14.73;;;13.23;;
76962;SDS011;65902;51.452;7.198;2023-03-01T00:01:22;17.15;;;15.68;;
76962;SDS011;65902;51.452;7.198;2023-03-01T00:02:30;18.38;;;16.33;;
76962;SDS011;65902;51.452;7.198;2023-03-01T00:03:36;14.40;;;12.90;;
76962;SDS011;65902;51.452;7.198;2023-03-01T00:04:39;16.42;;;14.95;;
76962;SDS011;65902;51.452;7.198;2023-03-01T00:05:45;14.20;;;11.95;;
76962;SDS011;65902;51.452;7.198;2023-03-01T00:06:48;14.52;;;12.98;;
76962;SDS011;65902;51.452;7.198;2023-03-01T00:07:52;13.02;;;11.70;;
76962;SDS011;65902;51.452;7.198;2023-03-01T00:08:55;14.63;;;12.77;;
76962;SDS011;65902;51.452;7.198;2023-03-01T00:09:56;14.38;;;12.63;;
76962;SDS011;65902;51.452;7.198;2023-03-01T00:12:17;14.45;;;12.65;;
76962;SDS011;65902;51.452;7.198;2023-03-01T00:13:20;20.85;;;18.95;;
76962;SDS011;65902;51.452;7.198;2023-03-01T00:14:21;13.55;;;12.30;;
76962;SDS011;65902;51.452;7.198;2023-03-01T00:15:24;15.57;;;14.07;;
76962;SDS011;65902;51.452;7.198;2023-03-01T00:16:26;16.42;;;14.35;;
76962;SDS011;65902;51.452;7.198;2023-03-01T00:17:28;15.13;;;13.52;;
76962;SDS011;65902;51.452;7.198;2023-03-01T00:18:29;13.85;;;12.55;;
76962;SDS011;65902;51.452;7.198;2023-03-01T00:19:29;15.23;;;13.73;;
76962;SDS011;65902;51.452;7.198;2023-03-01T00:20:32;14.77;;;12.57;;
76962;SDS011;65902;51.452;7.198;2023-03-01T00:21:36;18.95;;;16.77;;
76962;SDS011;65902;51.452;7.198;2023-03-01T00:22:37;13.85;;;12.18;;
76962;SDS011;65902;51.452;7.198;2023-03-01T00:23:37;15.00;;;13.60;;
76962;SDS011;65902;51.452;7.198;2023-03-01T00:24:40;14.82;;;13.45;;
76962;SDS011;65902;51.452;7.198;2023-03-01T00:25:42;16.00;;;14.40;;
76962;SDS011;65902;51.452;7.198;2023-03-01T00:26:48;18.90;;;17.35;;
76962;SDS011;65902;51.452;7.198;2023-03-01T00:27:53;16.00;;;14.65;;
76962;SDS011;65902;51.452;7.198;2023-03-01T00:28:59;17.92;;;16.23;;
76962;SDS011;65902;51.452;7.198;2023-03-01T00:30:04;16.98;;;15.38;;
76962;SDS011;65902;51.452;7.198;2023-03-01T00:31:06;23.75;;;21.95;;
76962;SDS011;65902;51.452;7.198;2023-03-01T00:32:23;14.32;;;12.05;;
76962;SDS011;65902;51.452;7.198;2023-03-01T00:33:24;16.38;;;14.88;;
76962;SDS011;65902;51.452;7.198;2023-03-01T00:34:27;17.50;;;15.77;;
76962;SDS011;65902;51.452;7.198;2023-03-01T00:35:31;14.95;;;13.65;;
76962;SDS011;65902;51.452;7.198;2023-03-01T00:36:35;17.40;;;15.80;;
76962;SDS011;65902;51.452;7.198;2023-03-01T00:37:38;15.18;;;12.98;;
76962;SDS011;65902;51.452;7.198;2023-03-01T00:38:42;21.15;;;19.23;;
76962;SDS011;65902;51.452;7.198;2023-03-01T00:39:46;15.20;;;12.50;;
76962;SDS011;65902;51.452;7.198;2023-03-01T00:40:49;13.85;;;12.50;;
76962;SDS011;65902;51.452;7.198;2023-03-01T00:41:53;23.42;;;21.63;;
76962;SDS011;65902;51.452;7.198;2023-03-01T00:42:56;13.57;;;12.05;;
76962;SDS011;65902;51.452;7.198;2023-03-01T00:44:58;13.18;;;11.88;;
76962;SDS011;65902;51.452;7.198;2023-03-01T00:46:00;15.52;;;13.98;;
76962;SDS011;65902;51.452;7.198;2023-03-01T00:47:04;16.65;;;15.10;;
76962;SDS011;65902;51.452;7.198;2023-03-01T00:48:05;14.27;;;12.85;;
76962;SDS011;65902;51.452;7.198;2023-03-01T00:49:09;14.85;;;13.38;;
76962;SDS011;65902;51.452;7.198;2023-03-01T00:50:10;17.20;;;15.57;;
76962;SDS011;65902;51.452;7.198;2023-03-01T00:51:12;15.75;;;12.93;;
76962;SDS011;65902;51.452;7.198;2023-03-01T00:52:14;15.43;;;13.90;;
76962;SDS011;65902;51.452;7.198;2023-03-01T00:53:14;14.52;;;13.18;;
76962;SDS011;65902;51.452;7.198;2023-03-01T00:54:15;15.38;;;13.95;;
76962;SDS011;65902;51.452;7.198;2023-03-01T00:55:20;16.83;;;15.15;;
76962;SDS011;65902;51.452;7.198;2023-03-01T00:56:21;15.25;;;11.20;;
76962;SDS011;65902;51.452;7.198;2023-03-01T00:57:23;15.95;;;14.50;;
76962;SDS011;65902;51.452;7.198;2023-03-01T00:58:29;13.23;;;11.93;;
76962;SDS011;65902;51.452;7.198;2023-03-01T00:59:30;16.88;;;15.23;;
76962;SDS011;65902;51.452;7.198;2023-03-01T01:00:33;16.20;;;14.52;;
76962;SDS011;65902;51.452;7.198;2023-03-01T01:01:34;18.58;;;17.25;;
76962;SDS011;65902;51.452;7.198;2023-03-01T01:02:37;15.60;;;14.02;;
76962;SDS011;65902;51.452;7.198;2023-03-01T01:03:42;16.30;;;14.73;;
76962;SDS011;65902;51.452;7.198;2023-03-01T01:04:48;15.50;;;14.10;;
76962;SDS011;65902;51.452;7.198;2023-03-01T01:05:48;20.85;;;19.05;;
76962;SDS011;65902;51.452;7.198;2023-03-01T01:06:49;14.20;;;12.68;;
76962;SDS011;65902;51.452;7.198;2023-03-01T01:07:53;12.55;;;11.35;;
76962;SDS011;65902;51.452;7.198;2023-03-01T01:08:56;15.68;;;14.15;;
76962;SDS011;65902;51.452;7.198;2023-03-01T01:10:00;26.77;;;24.90;;
76962;SDS011;65902;51.452;7.198;2023-03-01T01:11:00;18.50;;;16.88;;
76962;SDS011;65902;51.452;7.198;2023-03-01T01:12:01;17.02;;;14.45;;
76962;SDS011;65902;51.452;7.198;2023-03-01T01:13:03;11.73;;;10.52;;
76962;SDS011;65902;51.452;7.198;2023-03-01T01:14:04;16.75;;;15.13;;
76962;SDS011;65902;51.452;7.198;2023-03-01T01:15:05;17.67;;;16.27;;
76962;SDS011;65902;51.452;7.198;2023-03-01T01:16:08;12.32;;;11.05;;
76962;SDS011;65902;51.452;7.198;2023-03-01T01:17:12;14.85;;;13.35;;
76962;SDS011;65902;51.452;7.198;2023-03-01T01:18:13;15.52;;;14.10;;
76962;SDS011;65902;51.452;7.198;2023-03-01T01:19:15;16.13;;;14.70;;
76962;SDS011;65902;51.452;7.198;2023-03-01T01:20:16;18.05;;;14.73;;
76962;SDS011;65902;51.452;7.198;2023-03-01T01:21:18;16.15;;;13.02;;
76962;SDS011;65902;51.452;7.198;2023-03-01T01:22:24;12.07;;;10.93;;
76962;SDS011;65902;51.452;7.198;2023-03-01T01:23:24;16.77;;;13.65;;
76962;SDS011;65902;51.452;7.198;2023-03-01T01:24:25;16.45;;;14.95;;
76962;SDS011;65902;51.452;7.198;2023-03-01T01:25:28;14.43;;;13.05;;
76962;SDS011;65902;51.452;7.198;2023-03-01T01:26:32;16.25;;;14.77;;
76962;SDS011;65902;51.452;7.198;2023-03-01T01:27:34;17.85;;;12.55;;
76962;SDS011;65902;51.452;7.198;2023-03-01T01:28:35;15.07;;;13.75;;
76962;SDS011;65902;51.452;7.198;2023-03-01T01:29:36;17.08;;;15.57;;
76962;SDS011;65902;51.452;7.198;2023-03-01T01:30:38;18.65;;;16.95;;
76962;SDS011;65902;51.452;7.198;2023-03-01T01:31:39;16.83;;;14.43;;
76962;SDS011;65902;51.452;7.198;2023-03-01T01:32:41;13.93;;;12.10;;
76962;SDS011;65902;51.452;7.198;2023-03-01T01:33:46;16.00;;;14.43;;
76962;SDS011;65902;51.452;7.198;2023-03-01T01:34:49;14.60;;;13.15;;
76962;SDS011;65902;51.452;7.198;2023-03-01T01:35:53;14.40;;;12.50;;
76962;SDS011;65902;51.452;7.198;2023-03-01T01:36:57;15.00;;;13.50;;
76962;SDS011;65902;51.452;7.198;2023-03-01T01:38:04;14.70;;;13.25;;
76962;SDS011;65902;51.452;7.198;2023-03-01T01:39:08;16.65;;;15.05;;
76962;SDS011;65902;51.452;7.198;2023-03-01T01:40:15;16.77;;;15.40;;
76962;SDS011;65902;51.452;7.198;2023-03-01T01:41:16;24.05;;;22.00;;
76962;SDS011;65902;51.452;7.198;2023-03-01T01:42:18;15.93;;;14.48;;
76962;SDS011;65902;51.452;7.198;2023-03-01T01:43:23;15.38;;;13.77;;
76962;SDS011;65902;51.452;7.198;2023-03-01T01:44:26;19.00;;;11.77;;
76962;SDS011;65902;51.452;7.198;2023-03-01T01:45:32;13.85;;;12.50;;
76962;SDS011;65902;51.452;7.198;2023-03-01T01:46:40;13.40;;;11.73;;
76962;SDS011;65902;51.452;7.198;2023-03-01T01:47:58;13.65;;;12.32;;
76962;SDS011;65902;51.452;7.198;2023-03-01T01:49:05;13.45;;;12.05;;
76962;SDS011;65902;51.452;7.198;2023-03-01T01:50:08;18.08;;;16.55;;
76962;SDS011;65902;51.452;7.198;2023-03-01T01:51:19;16.75;;;15.18;;
76962;SDS011;65902;51.452;7.198;2023-03-01T01:53:26;14.27;;;12.88;;
76962;SDS011;65902;51.452;7.198;2023-03-01T01:54:51;15.93;;;13.70;;
76962;SDS011;65902;51.452;7.198;2023-03-01T01:55:53;17.05;;;15.65;;
76962;SDS011;65902;51.452;7.198;2023-03-01T01:57:00;23.92;;;21.45;;
76962;SDS011;65902;51.452;7.198;2023-03-01T01:58:04;14.70;;;12.75;;
76962;SDS011;65902;51.452;7.198;2023-03-01T01:59:08;17.27;;;15.93;;
76962;SDS011;65902;51.452;7.198;2023-03-01T02:00:13;19.13;;;17.30;;
76962;SDS011;65902;51.452;7.198;2023-03-01T02:01:18;15.95;;;14.35;;
76962;SDS011;65902;51.452;7.198;2023-03-01T02:02:24;19.10;;;13.82;;
76962;SDS011;65902;51.452;7.198;2023-03-01T02:03:28;19.13;;;17.63;;
76962;SDS011;65902;51.452;7.198;2023-03-01T02:04:33;14.93;;;13.05;;
76962;SDS011;65902;51.452;7.198;2023-03-01T02:05:49;15.00;;;13.60;;
76962;SDS011;65902;51.452;7.198;2023-03-01T02:06:55;13.38;;;11.68;;
76962;SDS011;65902;51.452;7.198;2023-03-01T02:08:01;12.70;;;10.93;;
76962;SDS011;65902;51.452;7.198;2023-03-01T02:10:10;17.58;;;15.77;;
76962;SDS011;65902;51.452;7.198;2023-03-01T02:11:11;14.40;;;10.77;;
76962;SDS011;65902;51.452;7.198;2023-03-01T02:12:19;15.35;;;14.02;;
76962;SDS011;65902;51.452;7.198;2023-03-01T02:13:22;14.32;;;12.93;;
76962;SDS011;65902;51.452;7.198;2023-03-01T02:14:26;24.00;;;21.98;;
76962;SDS011;65902;51.452;7.198;2023-03-01T02:15:35;20.88;;;19.27;;
76962;SDS011;65902;51.452;7.198;2023-03-01T02:16:44;20.75;;;18.95;;
76962;SDS011;65902;51.452;7.198;2023-03-01T02:18:46;14.93;;;13.40;;
76962;SDS011;65902;51.452;7.198;2023-03-01T02:22:37;14.52;;;13.23;;
76962;SDS011;65902;51.452;7.198;2023-03-01T02:23:39;17.42;;;15.70;;
76962;SDS011;65902;51.452;7.198;2023-03-01T02:27:05;19.00;;;17.50;;
76962;SDS011;65902;51.452;7.198;2023-03-01T02:29:18;17.23;;;15.50;;
76962;SDS011;65902;51.452;7.198;2023-03-01T02:30:23;17.48;;;14.63;;
76962;SDS011;65902;51.452;7.198;2023-03-01T02:31:25;15.73;;;14.20;;
76962;SDS011;65902;51.452;7.198;2023-03-01T02:32:46;14.80;;;13.20;;
76962;SDS011;65902;51.452;7.198;2023-03-01T02:33:47;17.27;;;15.45;;
76962;SDS011;65902;51.452;7.198;2023-03-01T02:35:55;16.55;;;14.85;;
76962;SDS011;65902;51.452;7.198;2023-03-01T02:36:57;17.65;;;16.05;;
76962;SDS011;65902;51.452;7.198;2023-03-01T02:38:06;20.80;;;18.98;;
76962;SDS011;65902;51.452;7.198;2023-03-01T02:39:10;17.00;;;15.40;;
76962;SDS011;65902;51.452;7.198;2023-03-01T02:40:19;16.38;;;14.82;;
76962;SDS011;65902;51.452;7.198;2023-03-01T02:41:22;17.42;;;15.55;;
76962;SDS011;65902;51.452;7.198;2023-03-01T02:42:28;13.18;;;11.90;;
76962;SDS011;65902;51.452;7.198;2023-03-01T02:43:32;20.13;;;18.55;;
76962;SDS011;65902;51.452;7.198;2023-03-01T02:44:33;22.75;;;20.80;;
76962;SDS011;65902;51.452;7.198;2023-03-01T02:45:42;15.95;;;14.23;;
76962;SDS011;65902;51.452;7.198;2023-03-01T02:46:50;15.45;;;12.45;;
76962;SDS011;65902;51.452;7.198;2023-03-01T02:47:56;14.50;;;13.05;;
76962;SDS011;65902;51.452;7.198;2023-03-01T02:48:59;23.08;;;21.17;;
76962;SDS011;65902;51.452;7.198;2023-03-01T02:50:03;14.57;;;13.10;;
76962;SDS011;65902;51.452;7.198;2023-03-01T02:52:43;30.45;;;28.40;;
76962;SDS011;65902;51.452;7.198;2023-03-01T02:53:52;18.30;;;11.90;;
76962;SDS011;65902;51.452;7.198;2023-03-01T02:56:00;15.43;;;13.15;;
76962;SDS011;65902;51.452;7.198;2023-03-01T02:57:04;18.35;;;14.50;;
76962;SDS011;65902;51.452;7.198;2023-03-01T02:58:08;14.77;;;13.30;;
76962;SDS011;65902;51.452;7.198;2023-03-01T02:59:15;27.23;;;25.35;;
76962;SDS011;65902;51.452;7.198;2023-03-01T03:00:21;19.17;;;17.40;;
76962;SDS011;65902;51.452;7.198;2023-03-01T03:01:25;15.95;;;13.20;;
76962;SDS011;65902;51.452;7.198;2023-03-01T03:02:37;14.93;;;13.00;;
76962;SDS011;65902;51.452;7.198;2023-03-01T03:03:42;14.13;;;12.68;;
76962;SDS011;65902;51.452;7.198;2023-03-01T03:04:43;16.35;;;14.93;;
76962;SDS011;65902;51.452;7.198;2023-03-01T03:05:46;13.38;;;11.98;;
76962;SDS011;65902;51.452;7.198;2023-03-01T03:06:52;15.98;;;14.35;;
76962;SDS011;65902;51.452;7.198;2023-03-01T03:07:53;13.45;;;11.20;;
76962;SDS011;65902;51.452;7.198;2023-03-01T03:08:54;18.77;;;12.43;;
76962;SDS011;65902;51.452;7.198;2023-03-01T03:09:57;13.70;;;11.98;;
76962;SDS011;65902;51.452;7.198;2023-03-01T03:10:58;16.75;;;13.93;;
76962;SDS011;65902;51.452;7.198;2023-03-01T03:11:59;17.10;;;15.40;;
76962;SDS011;65902;51.452;7.198;2023-03-01T03:13:01;16.40;;;14.90;;
76962;SDS011;65902;51.452;7.198;2023-03-01T03:14:06;15.30;;;13.43;;
76962;SDS011;65902;51.452;7.198;2023-03-01T03:15:12;14.25;;;12.80;;
76962;SDS011;65902;51.452;7.198;2023-03-01T03:16:16;13.20;;;11.75;;
76962;SDS011;65902;51.452;7.198;2023-03-01T03:17:19;16.15;;;14.70;;
76962;SDS011;65902;51.452;7.198;2023-03-01T03:18:24;14.35;;;12.82;;
76962;SDS011;65902;51.452;7.198;2023-03-01T03:19:30;18.67;;;16.92;;
76962;SDS011;65902;51.452;7.198;2023-03-01T03:20:33;26.27;;;24.08;;
76962;SDS011;65902;51.452;7.198;2023-03-01T03:21:37;17.15;;;15.38;;
76962;SDS011;65902;51.452;7.198;2023-03-01T03:22:38;13.93;;;12.27;;
76962;SDS011;65902;51.452;7.198;2023-03-01T03:23:40;16.13;;;12.80;;
76962;SDS011;65902;51.452;7.198;2023-03-01T03:24:43;13.93;;;12.45;;
76962;SDS011;65902;51.452;7.198;2023-03-01T03:25:44;15.52;;;14.00;;
76962;SDS011;65902;51.452;7.198;2023-03-01T03:26:50;16.30;;;14.77;;
76962;SDS011;65902;51.452;7.198;2023-03-01T03:27:53;14.70;;;12.50;;
76962;SDS011;65902;51.452;7.198;2023-03-01T03:28:59;17.13;;;13.60;;
76962;SDS011;65902;51.452;7.198;2023-03-01T03:30:02;16.23;;;13.07;;
76962;SDS011;65902;51.452;7.198;2023-03-01T03:31:03;15.80;;;11.63;;
76962;SDS011;65902;51.452;7.198;2023-03-01T03:32:08;14.65;;;12.25;;
76962;SDS011;65902;51.452;7.198;2023-03-01T03:33:13;15.85;;;13.43;;
76962;SDS011;65902;51.452;7.198;2023-03-01T03:34:17;17.38;;;15.77;;
76962;SDS011;65902;51.452;7.198;2023-03-01T03:35:24;20.77;;;18.88;;
76962;SDS011;65902;51.452;7.198;2023-03-01T03:36:30;17.77;;;14.07;;
76962;SDS011;65902;51.452;7.198;2023-03-01T03:37:31;16.92;;;15.32;;
76962;SDS011;65902;51.452;7.198;2023-03-01T03:38:50;16.85;;;15.20;;
76962;SDS011;65902;51.452;7.198;2023-03-01T03:39:53;15.57;;;13.77;;
76962;SDS011;65902;51.452;7.198;2023-03-01T03:41:01;18.80;;;16.80;;
76962;SDS011;65902;51.452;7.198;2023-03-01T03:42:03;17.30;;;14.65;;
76962;SDS011;65902;51.452;7.198;2023-03-01T03:43:07;17.40;;;13.90;;
76962;SDS011;65902;51.452;7.198;2023-03-01T03:44:18;16.08;;;13.73;;
76962;SDS011;65902;51.452;7.198;2023-03-01T03:45:21;14.52;;;12.75;;
76962;SDS011;65902;51.452;7.198;2023-03-01T03:46:22;18.08;;;16.42;;
76962;SDS011;65902;51.452;7.198;2023-03-01T03:47:26;15.95;;;14.27;;
76962;SDS011;65902;51.452;7.198;2023-03-01T03:48:29;24.33;;;22.50;;
76962;SDS011;65902;51.452;7.198;2023-03-01T03:49:35;15.15;;;13.65;;
76962;SDS011;65902;51.452;7.198;2023-03-01T03:50:41;17.60;;;15.90;;
76962;SDS011;65902;51.452;7.198;2023-03-01T03:51:47;14.77;;;13.23;;
76962;SDS011;65902;51.452;7.198;2023-03-01T03:52:53;14.93;;;13.40;;
76962;SDS011;65902;51.452;7.198;2023-03-01T03:53:56;28.77;;;26.40;;
76962;SDS011;65902;51.452;7.198;2023-03-01T03:54:58;15.30;;;13.80;;
76962;SDS011;65902;51.452;7.198;2023-03-01T03:55:59;16.52;;;14.15;;
76962;SDS011;65902;51.452;7.198;2023-03-01T03:56:59;31.65;;;29.50;;
76962;SDS011;65902;51.452;7.198;2023-03-01T03:58:03;17.35;;;15.80;;
76962;SDS011;65902;51.452;7.198;2023-03-01T03:59:08;15.75;;;13.05;;
76962;SDS011;65902;51.452;7.198;2023-03-01T04:01:15;16.40;;;14.80;;
76962;SDS011;65902;51.452;7.198;2023-03-01T04:02:23;14.23;;;12.75;;
76962;SDS011;65902;51.452;7.198;2023-03-01T04:03:25;13.25;;;11.80;;
76962;SDS011;65902;51.452;7.198;2023-03-01T04:04:26;17.23;;;14.93;;
76962;SDS011;65902;51.452;7.198;2023-03-01T04:05:29;22.92;;;20.95;;
76962;SDS011;65902;51.452;7.198;2023-03-01T04:06:33;18.13;;;16.42;;
76962;SDS011;65902;51.452;7.198;2023-03-01T04:07:37;17.25;;;15.77;;
76962;SDS011;65902;51.452;7.198;2023-03-01T04:08:38;15.70;;;13.98;;
76962;SDS011;65902;51.452;7.198;2023-03-01T04:09:42;14.02;;;12.68;;
76962;SDS011;65902;51.452;7.198;2023-03-01T04:10:46;16.98;;;13.98;;
76962;SDS011;65902;51.452;7.198;2023-03-01T04:11:51;14.48;;;12.80;;
76962;SDS011;65902;51.452;7.198;2023-03-01T04:12:53;18.75;;;17.02;;
76962;SDS011;65902;51.452;7.198;2023-03-01T04:13:57;19.98;;;18.33;;
76962;SDS011;65902;51.452;7.198;2023-03-01T04:16:03;97.70;;;62.17;;
76962;SDS011;65902;51.452;7.198;2023-03-01T04:18:08;70.45;;;45.95;;
76962;SDS011;65902;51.452;7.198;2023-03-01T04:19:09;95.85;;;64.63;;
76962;SDS011;65902;51.452;7.198;2023-03-01T04:20:14;125.10;;;70.10;;
76962;SDS011;65902;51.452;7.198;2023-03-01T04:21:26;25.85;;;23.27;;
76962;SDS011;65902;51.452;7.198;2023-03-01T04:22:34;17.27;;;15.55;;
76962;SDS011;65902;51.452;7.198;2023-03-01T04:23:40;80.80;;;58.00;;
76962;SDS011;65902;51.452;7.198;2023-03-01T04:24:44;66.25;;;50.22;;
76962;SDS011;65902;51.452;7.198;2023-03-01T04:27:55;70.90;;;55.35;;
76962;SDS011;65902;51.452;7.198;2023-03-01T04:28:58;55.03;;;37.45;;
76962;SDS011;65902;51.452;7.198;2023-03-01T04:30:05;67.30;;;56.08;;
76962;SDS011;65902;51.452;7.198;2023-03-01T04:31:10;175.70;;;113.10;;
76962;SDS011;65902;51.452;7.198;2023-03-01T04:32:21;202.00;;;113.00;;
76962;SDS011;65902;51.452;7.198;2023-03-01T04:33:29;68.63;;;56.20;;
76962;SDS011;65902;51.452;7.198;2023-03-01T04:34:32;112.10;;;76.70;;
76962;SDS011;65902;51.452;7.198;2023-03-01T04:35:32;258.15;;;160.20;;
76962;SDS011;65902;51.452;7.198;2023-03-01T04:36:35;82.28;;;61.20;;
76962;SDS011;65902;51.452;7.198;2023-03-01T04:37:42;94.90;;;62.10;;
76962;SDS011;65902;51.452;7.198;2023-03-01T04:38:46;111.65;;;77.07;;
76962;SDS011;65902;51.452;7.198;2023-03-01T04:39:52;40.45;;;28.00;;
76962;SDS011;65902;51.452;7.198;2023-03-01T04:40:55;22.67;;;20.48;;
76962;SDS011;65902;51.452;7.198;2023-03-01T04:41:58;18.85;;;16.58;;
76962;SDS011;65902;51.452;7.198;2023-03-01T04:43:04;17.60;;;15.07;;
76962;SDS011;65902;51.452;7.198;2023-03-01T04:46:17;15.65;;;14.02;;
76962;SDS011;65902;51.452;7.198;2023-03-01T04:47:22;16.92;;;15.20;;
76962;SDS011;65902;51.452;7.198;2023-03-01T04:48:25;19.77;;;16.55;;
76962;SDS011;65902;51.452;7.198;2023-03-01T04:49:26;17.08;;;15.43;;
76962;SDS011;65902;51.452;7.198;2023-03-01T04:50:30;21.98;;;20.00;;
76962;SDS011;65902;51.452;7.198;2023-03-01T04:51:31;18.08;;;16.35;;
76962;SDS011;65902;51.452;7.198;2023-03-01T04:52:34;22.52;;;20.52;;
76962;SDS011;65902;51.452;7.198;2023-03-01T04:53:37;19.42;;;17.73;;
76962;SDS011;65902;51.452;7.198;2023-03-01T04:54:39;17.45;;;15.82;;
76962;SDS011;65902;51.452;7.198;2023-03-01T04:55:41;15.00;;;13.60;;
76962;SDS011;65902;51.452;7.198;2023-03-01T04:56:41;16.92;;;15.27;;
76962;SDS011;65902;51.452;7.198;2023-03-01T04:57:46;24.58;;;22.58;;
76962;SDS011;65902;51.452;7.198;2023-03-01T04:58:47;18.42;;;16.38;;
76962;SDS011;65902;51.452;7.198;2023-03-01T04:59:52;22.90;;;21.08;;
76962;SDS011;65902;51.452;7.198;2023-03-01T05:00:53;17.73;;;16.13;;
76962;SDS011;65902;51.452;7.198;2023-03-01T05:03:00;17.65;;;16.05;;
76962;SDS011;65902;51.452;7.198;2023-03-01T05:04:06;23.58;;;21.50;;
76962;SDS011;65902;51.452;7.198;2023-03-01T05:05:16;18.33;;;16.52;;
76962;SDS011;65902;51.452;7.198;2023-03-01T05:06:19;16.58;;;14.98;;
76962;SDS011;65902;51.452;7.198;2023-03-01T05:07:26;16.67;;;14.88;;
76962;SDS011;65902;51.452;7.198;2023-03-01T05:08:29;28.10;;;25.98;;
76962;SDS011;65902;51.452;7.198;2023-03-01T05:09:37;16.33;;;14.90;;
76962;SDS011;65902;51.452;7.198;2023-03-01T05:10:40;17.17;;;14.10;;
76962;SDS011;65902;51.452;7.198;2023-03-01T05:11:42;25.55;;;23.52;;
76962;SDS011;65902;51.452;7.198;2023-03-01T05:12:45;31.20;;;29.00;;
76962;SDS011;65902;51.452;7.198;2023-03-01T05:13:49;23.17;;;21.35;;
76962;SDS011;65902;51.452;7.198;2023-03-01T05:14:55;24.75;;;19.10;;
76962;SDS011;65902;51.452;7.198;2023-03-01T05:15:59;15.05;;;13.07;;
76962;SDS011;65902;51.452;7.198;2023-03-01T05:17:05;16.70;;;15.30;;
76962;SDS011;65902;51.452;7.198;2023-03-01T05:18:10;18.70;;;16.95;;
76962;SDS011;65902;51.452;7.198;2023-03-01T05:19:13;16.30;;;14.75;;
76962;SDS011;65902;51.452;7.198;2023-03-01T05:20:15;26.70;;;24.50;;
76962;SDS011;65902;51.452;7.198;2023-03-01T05:21:23;19.23;;;17.40;;
76962;SDS011;65902;51.452;7.198;2023-03-01T05:22:27;16.02;;;14.30;;
76962;SDS011;65902;51.452;7.198;2023-03-01T05:23:28;25.67;;;23.42;;
76962;SDS011;65902;51.452;7.198;2023-03-01T05:25:35;28.45;;;25.20;;
76962;SDS011;65902;51.452;7.198;2023-03-01T05:26:40;20.17;;;17.05;;
76962;SDS011;65902;51.452;7.198;2023-03-01T05:27:41;24.25;;;18.65;;
76962;SDS011;65902;51.452;7.198;2023-03-01T05:28:45;23.63;;;21.55;;
76962;SDS011;65902;51.452;7.198;2023-03-01T05:29:48;19.70;;;17.23;;
76962;SDS011;65902;51.452;7.198;2023-03-01T05:30:51;22.02;;;19.83;;
76962;SDS011;65902;51.452;7.198;2023-03-01T05:31:57;22.23;;;20.13;;
76962;SDS011;65902;51.452;7.198;2023-03-01T05:32:59;17.75;;;16.10;;
76962;SDS011;65902;51.452;7.198;2023-03-01T05:34:06;16.58;;;14.70;;
76962;SDS011;65902;51.452;7.198;2023-03-01T05:35:07;19.65;;;17.35;;
76962;SDS011;65902;51.452;7.198;2023-03-01T05:36:13;19.55;;;17.55;;
76962;SDS011;65902;51.452;7.198;2023-03-01T05:37:21;21.20;;;19.40;;
76962;SDS011;65902;51.452;7.198;2023-03-01T05:38:21;18.65;;;16.50;;
76962;SDS011;65902;51.452;7.198;2023-03-01T05:39:26;18.63;;;16.88;;
76962;SDS011;65902;51.452;7.198;2023-03-01T05:40:28;19.90;;;17.88;;
76962;SDS011;65902;51.452;7.198;2023-03-01T05:41:31;16.27;;;14.73;;
76962;SDS011;65902;51.452;7.198;2023-03-01T05:42:37;17.85;;;16.00;;
76962;SDS011;65902;51.452;7.198;2023-03-01T05:43:38;19.83;;;18.17;;
76962;SDS011;65902;51.452;7.198;2023-03-01T05:44:46;17.27;;;15.65;;
76962;SDS011;65902;51.452;7.198;2023-03-01T05:45:49;15.95;;;14.32;;
76962;SDS011;65902;51.452;7.198;2023-03-01T05:46:50;27.10;;;25.15;;
76962;SDS011;65902;51.452;7.198;2023-03-01T05:47:52;17.73;;;16.02;;
76962;SDS011;65902;51.452;7.198;2023-03-01T05:48:55;19.95;;;18.25;;
76962;SDS011;65902;51.452;7.198;2023-03-01T05:49:56;26.92;;;24.40;;
76962;SDS011;65902;51.452;7.198;2023-03-01T05:51:00;19.15;;;17.25;;
76962;SDS011;65902;51.452;7.198;2023-03-01T05:52:01;24.15;;;22.08;;
76962;SDS011;65902;51.452;7.198;2023-03-01T05:54:14;15.25;;;13.68;;
76962;SDS011;65902;51.452;7.198;2023-03-01T05:55:19;19.23;;;17.27;;
76962;SDS011;65902;51.452;7.198;2023-03-01T05:56:23;23.70;;;20.15;;
76962;SDS011;65902;51.452;7.198;2023-03-01T05:57:23;25.98;;;23.92;;
76962;SDS011;65902;51.452;7.198;2023-03-01T05:58:29;19.50;;;17.45;;
76962;SDS011;65902;51.452;7.198;2023-03-01T05:59:30;18.58;;;16.65;;
76962;SDS011;65902;51.452;7.198;2023-03-01T06:00:33;18.33;;;16.45;;
76962;SDS011;65902;51.452;7.198;2023-03-01T06:01:37;19.48;;;17.42;;
76962;SDS011;65902;51.452;7.198;2023-03-01T06:02:38;19.92;;;17.92;;
76962;SDS011;65902;51.452;7.198;2023-03-01T06:03:41;19.73;;;18.20;;
76962;SDS011;65902;51.452;7.198;2023-03-01T06:04:45;19.40;;;17.52;;
76962;SDS011;65902;51.452;7.198;2023-03-01T06:05:46;23.52;;;21.27;;
76962;SDS011;65902;51.452;7.198;2023-03-01T06:06:49;20.80;;;17.60;;
76962;SDS011;65902;51.452;7.198;2023-03-01T06:07:53;19.63;;;17.58;;
76962;SDS011;65902;51.452;7.198;2023-03-01T06:09:02;20.25;;;18.38;;
76962;SDS011;65902;51.452;7.198;2023-03-01T06:10:05;17.00;;;15.23;;
76962;SDS011;65902;51.452;7.198;2023-03-01T06:11:10;20.77;;;18.67;;
76962;SDS011;65902;51.452;7.198;2023-03-01T06:12:18;18.02;;;16.30;;
76962;SDS011;65902;51.452;7.198;2023-03-01T06:13:19;17.88;;;15.95;;
76962;SDS011;65902;51.452;7.198;2023-03-01T06:14:20;21.25;;;16.08;;
76962;SDS011;65902;51.452;7.198;2023-03-01T06:15:24;16.55;;;14.48;;
76962;SDS011;65902;51.452;7.198;2023-03-01T06:16:25;25.45;;;23.42;;
76962;SDS011;65902;51.452;7.198;2023-03-01T06:17:29;20.35;;;18.42;;
76962;SDS011;65902;51.452;7.198;2023-03-01T06:18:40;19.77;;;17.85;;
76962;SDS011;65902;51.452;7.198;2023-03-01T06:19:43;17.20;;;15.15;;
76962;SDS011;65902;51.452;7.198;2023-03-01T06:20:52;16.88;;;15.23;;
76962;SDS011;65902;51.452;7.198;2023-03-01T06:21:56;32.40;;;30.13;;
76962;SDS011;65902;51.452;7.198;2023-03-01T06:22:57;22.27;;;20.05;;
76962;SDS011;65902;51.452;7.198;2023-03-01T06:24:00;20.08;;;17.38;;
76962;SDS011;65902;51.452;7.198;2023-03-01T06:25:05;19.55;;;16.98;;
76962;SDS011;65902;51.452;7.198;2023-03-01T06:26:09;18.80;;;15.60;;
76962;SDS011;65902;51.452;7.198;2023-03-01T06:27:12;19.42;;;16.75;;
76962;SDS011;65902;51.452;7.198;2023-03-01T06:28:13;19.90;;;18.20;;
76962;SDS011;65902;51.452;7.198;2023-03-01T06:29:19;18.30;;;16.60;;
76962;SDS011;65902;51.452;7.198;2023-03-01T06:30:23;17.05;;;15.25;;
76962;SDS011;65902;51.452;7.198;2023-03-01T06:31:28;17.05;;;15.35;;
76962;SDS011;65902;51.452;7.198;2023-03-01T06:32:29;18.73;;;16.92;;
76962;SDS011;65902;51.452;7.198;2023-03-01T06:33:31;16.17;;;13.95;;
76962;SDS011;65902;51.452;7.198;2023-03-01T06:34:34;17.70;;;16.02;;
76962;SDS011;65902;51.452;7.198;2023-03-01T06:36:39;26.33;;;24.55;;
76962;SDS011;65902;51.452;7.198;2023-03-01T06:37:40;38.58;;;35.85;;
76962;SDS011;65902;51.452;7.198;2023-03-01T06:38:46;20.40;;;18.58;;
76962;SDS011;65902;51.452;7.198;2023-03-01T06:39:49;19.80;;;18.00;;
76962;SDS011;65902;51.452;7.198;2023-03-01T06:40:54;17.50;;;15.93;;